sensor_id;sensor_type;location;lat;lon;timestamp;pressure;altitude;pressure_sealevel;temperature;humidity
74921;BME280;63483;47.384;8.860;2023-09-30T00:01:41;95486.84;;;16.83;47.45
74921;BME280;63483;47.384;8.860;2023-09-30T00:04:06;95486.03;;;16.83;47.47
74921;BME280;63483;47.384;8.860;2023-09-30T00:06:32;95491.72;;;16.80;47.23
74921;BME280;63483;47.384;8.860;2023-09-30T00:08:57;95490.09;;;16.79;47.40
74921;BME280;63483;47.384;8.860;2023-09-30T00:11:23;95490.09;;;16.79;47.21
74921;BME280;63483;47.384;8.860;2023-09-30T00:13:48;95489.47;;;16.77;47.28
74921;BME280;63483;47.384;8.860;2023-09-30T00:16:14;95485.19;;;16.76;47.61
74921;BME280;63483;47.384;8.860;2023-09-30T00:18:42;95487.63;;;16.77;47.58
74921;BME280;63483;47.384;8.860;2023-09-30T00:21:07;95487.84;;;16.76;47.35
74921;BME280;63483;47.384;8.860;2023-09-30T00:23:33;95497.00;;;16.73;47.30
74921;BME280;63483;47.384;8.860;2023-09-30T00:25:58;95499.22;;;16.70;47.29
74921;BME280;63483;47.384;8.860;2023-09-30T00:28:25;95497.78;;;16.67;47.65
74921;BME280;63483;47.384;8.860;2023-09-30T00:30:50;95502.25;;;16.66;47.99
74921;BME280;63483;47.384;8.860;2023-09-30T00:33:16;95492.69;;;16.65;47.49
74921;BME280;63483;47.384;8.860;2023-09-30T00:35:41;95499.41;;;16.61;47.72
74921;BME280;63483;47.384;8.860;2023-09-30T00:38:06;95495.50;;;16.57;47.36
74921;BME280;63483;47.384;8.860;2023-09-30T00:40:32;95494.81;;;16.42;47.95
74921;BME280;63483;47.384;8.860;2023-09-30T00:42:58;95484.63;;;16.39;47.87
74921;BME280;63483;47.384;8.860;2023-09-30T00:45:23;95487.06;;;16.40;48.34
74921;BME280;63483;47.384;8.860;2023-09-30T00:47:48;95495.44;;;16.44;48.62
74921;BME280;63483;47.384;8.860;2023-09-30T00:50:14;95495.44;;;16.44;48.27
74921;BME280;63483;47.384;8.860;2023-09-30T00:52:39;95493.41;;;16.46;47.91
74921;BME280;63483;47.384;8.860;2023-09-30T00:55:06;95494.06;;;16.48;48.36
74921;BME280;63483;47.384;8.860;2023-09-30T00:57:33;95484.28;;;16.48;48.29
74921;BME280;63483;47.384;8.860;2023-09-30T00:59:59;95480.84;;;16.48;48.32
74921;BME280;63483;47.384;8.860;2023-09-30T01:02:26;95480.84;;;16.48;48.70
74921;BME280;63483;47.384;8.860;2023-09-30T01:04:52;95471.25;;;16.47;48.45
74921;BME280;63483;47.384;8.860;2023-09-30T01:07:17;95463.53;;;16.45;48.77
74921;BME280;63483;47.384;8.860;2023-09-30T01:09:43;95462.09;;;16.43;48.54
74921;BME280;63483;47.384;8.860;2023-09-30T01:12:08;95466.75;;;16.41;48.73
74921;BME280;63483;47.384;8.860;2023-09-30T01:14:34;95465.53;;;16.43;49.06
74921;BME280;63483;47.384;8.860;2023-09-30T01:17:01;95458.63;;;16.42;48.73
74921;BME280;63483;47.384;8.860;2023-09-30T01:19:27;95450.06;;;16.40;48.59
74921;BME280;63483;47.384;8.860;2023-09-30T01:21:56;95450.06;;;16.40;48.45
74921;BME280;63483;47.384;8.860;2023-09-30T01:24:29;95445.81;;;16.39;48.53
74921;BME280;63483;47.384;8.860;2023-09-30T01:26:57;95457.19;;;16.40;48.84
74921;BME280;63483;47.384;8.860;2023-09-30T01:29:23;95447.63;;;16.39;48.62
74921;BME280;63483;47.384;8.860;2023-09-30T01:31:51;95443.16;;;16.39;48.37
74921;BME280;63483;47.384;8.860;2023-09-30T01:34:16;95452.31;;;16.37;48.56
74921;BME280;63483;47.384;8.860;2023-09-30T01:36:43;95446.38;;;16.35;48.63
74921;BME280;63483;47.384;8.860;2023-09-30T01:39:09;95445.38;;;16.36;48.55
74921;BME280;63483;47.384;8.860;2023-09-30T01:41:39;95441.09;;;16.35;48.96
74921;BME280;63483;47.384;8.860;2023-09-30T01:44:05;95447.59;;;16.32;48.89
74921;BME280;63483;47.384;8.860;2023-09-30T01:46:31;95458.19;;;16.32;48.76
74921;BME280;63483;47.384;8.860;2023-09-30T01:48:56;95453.69;;;16.32;48.60
74921;BME280;63483;47.384;8.860;2023-09-30T01:51:21;95446.78;;;16.31;48.71
74921;BME280;63483;47.384;8.860;2023-09-30T01:53:47;95441.88;;;16.28;49.03
74921;BME280;63483;47.384;8.860;2023-09-30T01:56:12;95442.53;;;16.30;48.80
74921;BME280;63483;47.384;8.860;2023-09-30T01:58:38;95445.97;;;16.31;48.80
74921;BME280;63483;47.384;8.860;2023-09-30T02:01:03;95442.53;;;16.30;48.57
74921;BME280;63483;47.384;8.860;2023-09-30T02:03:29;95439.25;;;16.28;48.90
74921;BME280;63483;47.384;8.860;2023-09-30T02:05:57;95429.69;;;16.27;49.02
74921;BME280;63483;47.384;8.860;2023-09-30T02:08:23;95448.19;;;16.27;48.87
74921;BME280;63483;47.384;8.860;2023-09-30T02:10:48;95444.91;;;16.25;48.79
74921;BME280;63483;47.384;8.860;2023-09-30T02:13:14;95451.25;;;16.24;48.58
74921;BME280;63483;47.384;8.860;2023-09-30T02:15:42;95448.97;;;16.21;49.16
74921;BME280;63483;47.384;8.860;2023-09-30T02:18:07;95453.81;;;16.18;48.78
74921;BME280;63483;47.384;8.860;2023-09-30T02:20:34;95450.56;;;16.15;49.15
74921;BME280;63483;47.384;8.860;2023-09-30T02:22:59;95447.09;;;16.15;48.92
74921;BME280;63483;47.384;8.860;2023-09-30T02:25:27;95454.84;;;16.17;49.30
74921;BME280;63483;47.384;8.860;2023-09-30T02:27:52;95441.81;;;16.15;48.90
74921;BME280;63483;47.384;8.860;2023-09-30T02:30:18;95435.91;;;16.13;49.30
74921;BME280;63483;47.384;8.860;2023-09-30T02:32:43;95436.53;;;16.15;48.78
74921;BME280;63483;47.384;8.860;2023-09-30T02:35:11;95439.19;;;16.15;49.03
74921;BME280;63483;47.384;8.860;2023-09-30T02:37:37;95436.53;;;16.15;49.35
74921;BME280;63483;47.384;8.860;2023-09-30T02:40:06;95436.53;;;16.15;49.60
74921;BME280;63483;47.384;8.860;2023-09-30T02:42:38;95440.41;;;16.12;49.22
74921;BME280;63483;47.384;8.860;2023-09-30T02:45:04;95448.34;;;16.12;49.10
74921;BME280;63483;47.384;8.860;2023-09-30T02:47:30;95446.69;;;16.11;49.33
74921;BME280;63483;47.384;8.860;2023-09-30T02:49:57;95449.69;;;16.08;49.41
74921;BME280;63483;47.384;8.860;2023-09-30T02:52:26;95445.59;;;16.06;49.35
74921;BME280;63483;47.384;8.860;2023-09-30T02:54:52;95447.44;;;16.05;49.12
74921;BME280;63483;47.384;8.860;2023-09-30T02:57:17;95443.34;;;16.03;49.27
74921;BME280;63483;47.384;8.860;2023-09-30T02:59:43;95441.50;;;16.03;49.18
74921;BME280;63483;47.384;8.860;2023-09-30T03:02:10;95445.19;;;16.02;49.56
74921;BME280;63483;47.384;8.860;2023-09-30T03:04:36;95447.00;;;16.02;49.56
74921;BME280;63483;47.384;8.860;2023-09-30T03:07:01;95437.25;;;16.02;49.23
74921;BME280;63483;47.384;8.860;2023-09-30T03:09:27;95441.72;;;16.02;49.35
74921;BME280;63483;47.384;8.860;2023-09-30T03:11:52;95442.56;;;16.02;49.68
74921;BME280;63483;47.384;8.860;2023-09-30T03:14:21;95435.81;;;16.00;49.73
74921;BME280;63483;47.384;8.860;2023-09-30T03:16:46;95441.72;;;16.02;49.50
74921;BME280;63483;47.384;8.860;2023-09-30T03:19:12;95438.06;;;16.03;49.55
74921;BME280;63483;47.384;8.860;2023-09-30T03:21:38;95450.28;;;16.04;49.25
74921;BME280;63483;47.384;8.860;2023-09-30T03:24:04;95447.00;;;16.02;49.25
74921;BME280;63483;47.384;8.860;2023-09-30T03:26:30;95452.28;;;16.02;49.45
74921;BME280;63483;47.384;8.860;2023-09-30T03:28:56;95450.66;;;16.01;49.50
74921;BME280;63483;47.384;8.860;2023-09-30T03:31:22;95446.59;;;15.98;49.39
74921;BME280;63483;47.384;8.860;2023-09-30T03:33:49;95448.59;;;15.96;49.45
74921;BME280;63483;47.384;8.860;2023-09-30T03:36:16;95446.97;;;15.95;49.24
74921;BME280;63483;47.384;8.860;2023-09-30T03:38:42;95447.78;;;15.95;49.09
74921;BME280;63483;47.384;8.860;2023-09-30T03:41:07;95451.41;;;15.94;49.05
74921;BME280;63483;47.384;8.860;2023-09-30T03:43:34;95444.53;;;15.93;49.61
74921;BME280;63483;47.384;8.860;2023-09-30T03:46:02;95446.53;;;15.91;49.45
74921;BME280;63483;47.384;8.860;2023-09-30T03:48:27;95453.03;;;15.89;49.28
74921;BME280;63483;47.384;8.860;2023-09-30T03:50:52;95449.16;;;15.91;49.57
74921;BME280;63483;47.384;8.860;2023-09-30T03:53:19;95450.81;;;15.92;49.93
74921;BME280;63483;47.384;8.860;2023-09-30T03:55:45;95452.44;;;15.93;49.70
74921;BME280;63483;47.384;8.860;2023-09-30T03:58:10;95444.91;;;15.90;49.41
74921;BME280;63483;47.384;8.860;2023-09-30T04:00:37;95442.63;;;15.87;49.77
74921;BME280;63483;47.384;8.860;2023-09-30T04:03:03;95447.31;;;15.85;49.49
74921;BME280;63483;47.384;8.860;2023-09-30T04:05:28;95451.31;;;15.74;49.25
74921;BME280;63483;47.384;8.860;2023-09-30T04:07:58;95447.84;;;15.74;49.65
74921;BME280;63483;47.384;8.860;2023-09-30T04:10:23;95455.75;;;15.74;49.51
74921;BME280;63483;47.384;8.860;2023-09-30T04:12:49;95450.13;;;15.77;49.63
74921;BME280;63483;47.384;8.860;2023-09-30T04:15:14;95453.56;;;15.77;49.87
74921;BME280;63483;47.384;8.860;2023-09-30T04:17:40;95452.75;;;15.77;49.46
74921;BME280;63483;47.384;8.860;2023-09-30T04:20:07;95445.00;;;15.75;49.51
74921;BME280;63483;47.384;8.860;2023-09-30T04:22:41;95433.63;;;15.75;49.92
74921;BME280;63483;47.384;8.860;2023-09-30T04:25:08;95445.00;;;15.75;49.70
74921;BME280;63483;47.384;8.860;2023-09-30T04:27:37;95433.03;;;15.73;49.97
74921;BME280;63483;47.384;8.860;2023-09-30T04:30:03;95434.63;;;15.74;49.76
74921;BME280;63483;47.384;8.860;2023-09-30T04:32:38;95423.25;;;15.73;49.86
74921;BME280;63483;47.384;8.860;2023-09-30T04:35:07;95422.06;;;15.76;49.78
74921;BME280;63483;47.384;8.860;2023-09-30T04:37:36;95409.84;;;15.75;49.83
74921;BME280;63483;47.384;8.860;2023-09-30T04:40:06;95401.75;;;15.76;49.72
74921;BME280;63483;47.384;8.860;2023-09-30T04:42:36;95408.66;;;15.77;49.64
74921;BME280;63483;47.384;8.860;2023-09-30T04:45:03;95412.31;;;15.76;49.88
74921;BME280;63483;47.384;8.860;2023-09-30T04:47:31;95416.78;;;15.76;49.56
74921;BME280;63483;47.384;8.860;2023-09-30T04:49:57;95425.69;;;15.75;49.77
74921;BME280;63483;47.384;8.860;2023-09-30T04:52:23;95442.56;;;15.74;49.84
74921;BME280;63483;47.384;8.860;2023-09-30T04:54:52;95437.84;;;15.69;49.61
74921;BME280;63483;47.384;8.860;2023-09-30T04:57:17;95435.97;;;15.63;49.87
74921;BME280;63483;47.384;8.860;2023-09-30T04:59:44;95443.47;;;15.59;49.96
74921;BME280;63483;47.384;8.860;2023-09-30T05:02:09;95453.19;;;15.52;49.82
74921;BME280;63483;47.384;8.860;2023-09-30T05:04:36;95443.22;;;15.54;49.83
74921;BME280;63483;47.384;8.860;2023-09-30T05:07:02;95437.34;;;15.52;49.74
74921;BME280;63483;47.384;8.860;2023-09-30T05:09:28;95430.41;;;15.51;49.89
74921;BME280;63483;47.384;8.860;2023-09-30T05:11:54;95438.97;;;15.53;50.25
74921;BME280;63483;47.384;8.860;2023-09-30T05:14:20;95441.63;;;15.53;50.18
74921;BME280;63483;47.384;8.860;2023-09-30T05:16:46;95455.63;;;15.54;50.07
74921;BME280;63483;47.384;8.860;2023-09-30T05:19:12;95467.38;;;15.51;50.10
74921;BME280;63483;47.384;8.860;2023-09-30T05:21:37;95463.72;;;15.52;50.34
74921;BME280;63483;47.384;8.860;2023-09-30T05:24:04;95460.91;;;15.54;50.27
74921;BME280;63483;47.384;8.860;2023-09-30T05:26:30;95467.00;;;15.54;50.00
74921;BME280;63483;47.384;8.860;2023-09-30T05:28:55;95467.00;;;15.54;49.78
74921;BME280;63483;47.384;8.860;2023-09-30T05:31:21;95462.09;;;15.51;49.98
74921;BME280;63483;47.384;8.860;2023-09-30T05:33:46;95458.84;;;15.49;49.82
74921;BME280;63483;47.384;8.860;2023-09-30T05:36:11;95450.28;;;15.47;49.83
74921;BME280;63483;47.384;8.860;2023-09-30T05:38:38;95441.34;;;15.48;50.24
74921;BME280;63483;47.384;8.860;2023-09-30T05:41:04;95447.63;;;15.47;50.07
74921;BME280;63483;47.384;8.860;2023-09-30T05:43:31;95450.28;;;15.47;50.13
74921;BME280;63483;47.384;8.860;2023-09-30T05:45:57;95468.13;;;15.45;50.32
74921;BME280;63483;47.384;8.860;2023-09-30T05:48:23;95469.78;;;15.46;50.52
74921;BME280;63483;47.384;8.860;2023-09-30T05:50:49;95469.78;;;15.46;50.57
74921;BME280;63483;47.384;8.860;2023-09-30T05:53:14;95480.34;;;15.46;50.18
74921;BME280;63483;47.384;8.860;2023-09-30T05:55:41;95477.69;;;15.46;49.89
74921;BME280;63483;47.384;8.860;2023-09-30T05:58:12;95486.63;;;15.45;50.13
74921;BME280;63483;47.384;8.860;2023-09-30T06:00:39;95481.53;;;15.43;50.34
74921;BME280;63483;47.384;8.860;2023-09-30T06:03:05;95495.31;;;15.39;50.11
74921;BME280;63483;47.384;8.860;2023-09-30T06:05:31;95496.94;;;15.40;50.35
74921;BME280;63483;47.384;8.860;2023-09-30T06:07:58;95494.91;;;15.42;50.35
74921;BME280;63483;47.384;8.860;2023-09-30T06:10:24;95488.44;;;15.44;50.14
74921;BME280;63483;47.384;8.860;2023-09-30T06:12:51;95483.59;;;15.48;50.45
74921;BME280;63483;47.384;8.860;2023-09-30T06:15:20;95489.69;;;15.49;50.61
74921;BME280;63483;47.384;8.860;2023-09-30T06:17:50;95493.78;;;15.51;50.39
74921;BME280;63483;47.384;8.860;2023-09-30T06:20:17;95491.13;;;15.51;50.29
74921;BME280;63483;47.384;8.860;2023-09-30T06:22:46;95506.97;;;15.51;50.13
74921;BME280;63483;47.384;8.860;2023-09-30T06:25:12;95513.91;;;15.52;49.97
74921;BME280;63483;47.384;8.860;2023-09-30T06:27:39;95519.78;;;15.54;50.04
74921;BME280;63483;47.384;8.860;2023-09-30T06:30:05;95519.78;;;15.54;49.88
74921;BME280;63483;47.384;8.860;2023-09-30T06:32:30;95519.09;;;15.45;49.68
74921;BME280;63483;47.384;8.860;2023-09-30T06:34:56;95517.69;;;15.43;49.99
74921;BME280;63483;47.384;8.860;2023-09-30T06:37:21;95517.69;;;15.43;49.45
74921;BME280;63483;47.384;8.860;2023-09-30T06:39:47;95514.00;;;15.44;49.77
74921;BME280;63483;47.384;8.860;2023-09-30T06:42:13;95502.47;;;15.45;49.56
74921;BME280;63483;47.384;8.860;2023-09-30T06:44:38;95511.63;;;15.49;49.60
74921;BME280;63483;47.384;8.860;2023-09-30T06:47:04;95510.88;;;15.55;49.77
74921;BME280;63483;47.384;8.860;2023-09-30T06:49:29;95504.03;;;15.61;49.70
74921;BME280;63483;47.384;8.860;2023-09-30T06:51:55;95511.38;;;15.66;49.42
74921;BME280;63483;47.384;8.860;2023-09-30T06:54:21;95519.72;;;15.69;49.45
74921;BME280;63483;47.384;8.860;2023-09-30T06:56:46;95517.53;;;15.73;49.42
74921;BME280;63483;47.384;8.860;2023-09-30T06:59:11;95525.06;;;15.76;49.33
74921;BME280;63483;47.384;8.860;2023-09-30T07:01:37;95532.59;;;15.79;49.80
74921;BME280;63483;47.384;8.860;2023-09-30T07:04:02;95529.75;;;15.80;49.46
74921;BME280;63483;47.384;8.860;2023-09-30T07:06:28;95533.84;;;15.83;48.89
74921;BME280;63483;47.384;8.860;2023-09-30T07:08:53;95528.19;;;15.86;48.63
74921;BME280;63483;47.384;8.860;2023-09-30T07:11:29;95523.53;;;15.88;48.68
74921;BME280;63483;47.384;8.860;2023-09-30T07:13:56;95535.34;;;15.92;48.67
74921;BME280;63483;47.384;8.860;2023-09-30T07:16:21;95537.59;;;15.95;48.56
74921;BME280;63483;47.384;8.860;2023-09-30T07:18:46;95528.69;;;15.96;48.78
74921;BME280;63483;47.384;8.860;2023-09-30T07:21:13;95531.94;;;15.98;48.11
74921;BME280;63483;47.384;8.860;2023-09-30T07:23:38;95530.75;;;16.01;47.48
74921;BME280;63483;47.384;8.860;2023-09-30T07:26:04;95531.53;;;16.02;47.65
74921;BME280;63483;47.384;8.860;2023-09-30T07:28:29;95535.63;;;16.04;47.91
74921;BME280;63483;47.384;8.860;2023-09-30T07:30:55;95545.41;;;16.04;47.39
74921;BME280;63483;47.384;8.860;2023-09-30T07:33:20;95543.38;;;16.06;47.14
74921;BME280;63483;47.384;8.860;2023-09-30T07:35:46;95546.81;;;16.06;47.25
74921;BME280;63483;47.384;8.860;2023-09-30T07:38:11;95543.66;;;15.89;47.36
74921;BME280;63483;47.384;8.860;2023-09-30T07:40:37;95558.91;;;15.66;47.69
74921;BME280;63483;47.384;8.860;2023-09-30T07:43:02;95558.56;;;15.75;46.96
74921;BME280;63483;47.384;8.860;2023-09-30T07:45:27;95556.88;;;15.68;47.26
74921;BME280;63483;47.384;8.860;2023-09-30T07:47:53;95564.03;;;15.74;47.05
74921;BME280;63483;47.384;8.860;2023-09-30T07:50:18;95566.66;;;15.74;47.74
74921;BME280;63483;47.384;8.860;2023-09-30T07:52:44;95570.72;;;15.70;47.24
74921;BME280;63483;47.384;8.860;2023-09-30T07:55:10;95567.25;;;15.69;46.72
74921;BME280;63483;47.384;8.860;2023-09-30T07:57:36;95567.44;;;15.68;46.64
74921;BME280;63483;47.384;8.860;2023-09-30T08:00:02;95560.78;;;15.72;47.31
74921;BME280;63483;47.384;8.860;2023-09-30T08:02:33;95562.22;;;15.74;46.59
74921;BME280;63483;47.384;8.860;2023-09-30T08:04:59;95574.47;;;15.82;46.20
74921;BME280;63483;47.384;8.860;2023-09-30T08:07:25;95562.66;;;15.78;46.30
74921;BME280;63483;47.384;8.860;2023-09-30T08:09:51;95559.88;;;15.86;47.00
74921;BME280;63483;47.384;8.860;2023-09-30T08:12:16;95552.19;;;15.91;46.52
74921;BME280;63483;47.384;8.860;2023-09-30T08:14:41;95551.19;;;15.92;46.50
74921;BME280;63483;47.384;8.860;2023-09-30T08:17:09;95544.81;;;15.80;46.70
74921;BME280;63483;47.384;8.860;2023-09-30T08:19:35;95547.78;;;15.98;46.36
74921;BME280;63483;47.384;8.860;2023-09-30T08:22:01;95542.97;;;16.09;46.58
74921;BME280;63483;47.384;8.860;2023-09-30T08:24:28;95539.00;;;16.20;47.30
74921;BME280;63483;47.384;8.860;2023-09-30T08:26:54;95536.22;;;16.28;46.67
74921;BME280;63483;47.384;8.860;2023-09-30T08:29:20;95546.47;;;16.38;46.65
74921;BME280;63483;47.384;8.860;2023-09-30T08:31:46;95530.81;;;16.43;46.26
74921;BME280;63483;47.384;8.860;2023-09-30T08:34:12;95546.81;;;16.35;46.19
74921;BME280;63483;47.384;8.860;2023-09-30T08:36:39;95553.38;;;16.39;45.41
74921;BME280;63483;47.384;8.860;2023-09-30T08:39:05;95559.00;;;16.29;45.04
74921;BME280;63483;47.384;8.860;2023-09-30T08:41:32;95574.81;;;16.22;45.75
74921;BME280;63483;47.384;8.860;2023-09-30T08:44:01;95589.13;;;16.35;44.82
74921;BME280;63483;47.384;8.860;2023-09-30T08:46:30;95584.69;;;16.42;45.30
74921;BME280;63483;47.384;8.860;2023-09-30T08:48:58;95577.25;;;16.24;45.90
74921;BME280;63483;47.384;8.860;2023-09-30T08:51:24;95560.31;;;16.46;44.68
74921;BME280;63483;47.384;8.860;2023-09-30T08:53:52;95548.31;;;16.44;45.02
74921;BME280;63483;47.384;8.860;2023-09-30T08:56:19;95542.25;;;16.50;45.35
74921;BME280;63483;47.384;8.860;2023-09-30T08:58:46;95531.28;;;16.53;45.34
74921;BME280;63483;47.384;8.860;2023-09-30T09:01:11;95532.75;;;16.62;45.20
74921;BME280;63483;47.384;8.860;2023-09-30T09:03:38;95536.47;;;16.75;44.89
74921;BME280;63483;47.384;8.860;2023-09-30T09:06:04;95526.66;;;16.68;43.71
74921;BME280;63483;47.384;8.860;2023-09-30T09:08:29;95518.78;;;16.33;43.96
74921;BME280;63483;47.384;8.860;2023-09-30T09:10:59;95527.84;;;16.53;44.00
74921;BME280;63483;47.384;8.860;2023-09-30T09:13:26;95532.22;;;16.39;44.19
74921;BME280;63483;47.384;8.860;2023-09-30T09:16:08;95522.88;;;16.43;44.45
74921;BME280;63483;47.384;8.860;2023-09-30T09:18:34;95528.22;;;16.49;44.10
74921;BME280;63483;47.384;8.860;2023-09-30T09:21:18;95529.22;;;16.48;44.02
74921;BME280;63483;47.384;8.860;2023-09-30T09:23:46;95517.25;;;16.53;44.14
74921;BME280;63483;47.384;8.860;2023-09-30T09:26:23;95514.34;;;16.41;44.05
74921;BME280;63483;47.384;8.860;2023-09-30T09:28:49;95527.03;;;16.17;44.39
74921;BME280;63483;47.384;8.860;2023-09-30T09:31:22;95530.88;;;16.21;43.81
74921;BME280;63483;47.384;8.860;2023-09-30T09:33:48;95530.41;;;16.39;44.46
74921;BME280;63483;47.384;8.860;2023-09-30T09:36:15;95527.97;;;16.38;44.09
74921;BME280;63483;47.384;8.860;2023-09-30T09:38:44;95537.13;;;16.42;44.53
74921;BME280;63483;47.384;8.860;2023-09-30T09:41:10;95538.38;;;16.46;43.79
74921;BME280;63483;47.384;8.860;2023-09-30T09:43:36;95546.81;;;16.35;44.50
74921;BME280;63483;47.384;8.860;2023-09-30T09:46:05;95539.69;;;16.63;43.35
74921;BME280;63483;47.384;8.860;2023-09-30T09:48:36;95536.47;;;16.75;44.35
74921;BME280;63483;47.384;8.860;2023-09-30T09:51:03;95533.19;;;16.73;45.97
74921;BME280;63483;47.384;8.860;2023-09-30T09:53:30;95543.00;;;16.79;44.39
74921;BME280;63483;47.384;8.860;2023-09-30T09:55:59;95541.97;;;16.80;43.87
74921;BME280;63483;47.384;8.860;2023-09-30T09:58:26;95537.50;;;16.74;44.21
74921;BME280;63483;47.384;8.860;2023-09-30T10:00:52;95543.31;;;16.56;43.82
74921;BME280;63483;47.384;8.860;2023-09-30T10:03:18;95541.78;;;16.75;44.73
74921;BME280;63483;47.384;8.860;2023-09-30T10:05:43;95538.53;;;16.79;44.25
74921;BME280;63483;47.384;8.860;2023-09-30T10:08:12;95535.25;;;16.71;43.92
74921;BME280;63483;47.384;8.860;2023-09-30T10:10:39;95535.69;;;16.81;43.97
74921;BME280;63483;47.384;8.860;2023-09-30T10:13:05;95526.59;;;16.90;43.36
74921;BME280;63483;47.384;8.860;2023-09-30T10:15:38;95529.44;;;16.89;43.84
74921;BME280;63483;47.384;8.860;2023-09-30T10:18:11;95535.38;;;16.97;43.08
74921;BME280;63483;47.384;8.860;2023-09-30T10:20:41;95538.63;;;16.99;43.99
74921;BME280;63483;47.384;8.860;2023-09-30T10:23:25;95535.25;;;16.77;45.13
74921;BME280;63483;47.384;8.860;2023-09-30T10:25:53;95546.22;;;16.74;45.78
74921;BME280;63483;47.384;8.860;2023-09-30T10:28:41;95532.47;;;16.50;45.77
74921;BME280;63483;47.384;8.860;2023-09-30T10:36:33;95514.75;;;16.86;44.85
74921;BME280;63483;47.384;8.860;2023-09-30T10:38:59;95506.06;;;16.99;45.19
74921;BME280;63483;47.384;8.860;2023-09-30T10:46:58;95487.00;;;17.37;43.78
74921;BME280;63483;47.384;8.860;2023-09-30T10:51:51;95476.84;;;17.67;42.30
74921;BME280;63483;47.384;8.860;2023-09-30T10:54:22;95472.59;;;17.80;42.47
74921;BME280;63483;47.384;8.860;2023-09-30T10:56:51;95471.34;;;17.89;42.39
74921;BME280;63483;47.384;8.860;2023-09-30T10:59:25;95471.13;;;17.97;42.55
74921;BME280;63483;47.384;8.860;2023-09-30T11:01:51;95477.63;;;18.01;42.56
74921;BME280;63483;47.384;8.860;2023-09-30T11:04:18;95469.91;;;17.93;42.04
74921;BME280;63483;47.384;8.860;2023-09-30T11:06:45;95461.34;;;17.91;42.38
74921;BME280;63483;47.384;8.860;2023-09-30T11:09:15;95469.09;;;17.79;42.28
74921;BME280;63483;47.384;8.860;2023-09-30T11:11:44;95462.56;;;17.95;42.19
74921;BME280;63483;47.384;8.860;2023-09-30T11:14:28;95467.44;;;18.05;42.52
74921;BME280;63483;47.384;8.860;2023-09-30T11:16:59;95465.44;;;17.73;42.81
74921;BME280;63483;47.384;8.860;2023-09-30T11:19:25;95467.66;;;17.77;43.16
74921;BME280;63483;47.384;8.860;2023-09-30T11:21:52;95468.28;;;17.59;43.43
74921;BME280;63483;47.384;8.860;2023-09-30T11:24:18;95460.56;;;17.64;42.87
74921;BME280;63483;47.384;8.860;2023-09-30T11:26:45;95467.69;;;17.70;43.06
74921;BME280;63483;47.384;8.860;2023-09-30T11:29:12;95463.59;;;17.67;42.83
74921;BME280;63483;47.384;8.860;2023-09-30T11:31:39;95464.22;;;17.76;42.66
74921;BME280;63483;47.384;8.860;2023-09-30T11:34:05;95451.75;;;18.03;42.13
74921;BME280;63483;47.384;8.860;2023-09-30T11:36:35;95450.34;;;17.41;43.23
74921;BME280;63483;47.384;8.860;2023-09-30T11:39:00;95450.34;;;17.87;42.29
74921;BME280;63483;47.384;8.860;2023-09-30T11:41:36;95449.13;;;17.57;42.06
74921;BME280;63483;47.384;8.860;2023-09-30T11:44:06;95455.22;;;17.57;43.03
74921;BME280;63483;47.384;8.860;2023-09-30T11:46:55;95455.22;;;17.84;41.77
74921;BME280;63483;47.384;8.860;2023-09-30T11:49:35;95453.75;;;18.15;41.19
74921;BME280;63483;47.384;8.860;2023-09-30T11:52:03;95452.28;;;18.25;41.04
74921;BME280;63483;47.384;8.860;2023-09-30T11:54:42;95448.66;;;18.33;40.99
74921;BME280;63483;47.384;8.860;2023-09-30T11:57:18;95444.53;;;18.24;41.80
74921;BME280;63483;47.384;8.860;2023-09-30T11:59:45;95448.31;;;17.83;43.30
74921;BME280;63483;47.384;8.860;2023-09-30T12:02:12;95454.03;;;17.93;42.03
74921;BME280;63483;47.384;8.860;2023-09-30T12:04:38;95454.66;;;17.68;42.50
74921;BME280;63483;47.384;8.860;2023-09-30T12:07:04;95446.91;;;17.80;42.18
74921;BME280;63483;47.384;8.860;2023-09-30T12:09:29;95446.28;;;17.92;42.35
74921;BME280;63483;47.384;8.860;2023-09-30T12:11:56;95453.00;;;17.47;42.73
74921;BME280;63483;47.384;8.860;2023-09-30T12:14:23;95454.63;;;17.95;41.96
74921;BME280;63483;47.384;8.860;2023-09-30T12:16:48;95450.78;;;17.84;42.19
74921;BME280;63483;47.384;8.860;2023-09-30T12:19:14;95447.94;;;17.59;41.92
74921;BME280;63483;47.384;8.860;2023-09-30T12:21:41;95440.13;;;17.91;41.52
74921;BME280;63483;47.384;8.860;2023-09-30T12:24:07;95437.69;;;17.96;42.08
74921;BME280;63483;47.384;8.860;2023-09-30T12:26:34;95435.25;;;17.88;42.55
74921;BME280;63483;47.384;8.860;2023-09-30T12:29:00;95421.41;;;17.86;41.79
74921;BME280;63483;47.384;8.860;2023-09-30T12:31:25;95424.28;;;17.71;42.25
74921;BME280;63483;47.384;8.860;2023-09-30T12:33:50;95407.97;;;17.81;41.83
74921;BME280;63483;47.384;8.860;2023-09-30T12:36:18;95415.88;;;18.01;41.65
74921;BME280;63483;47.384;8.860;2023-09-30T12:38:43;95413.19;;;18.07;41.97
74921;BME280;63483;47.384;8.860;2023-09-30T12:41:09;95414.66;;;18.03;42.42
74921;BME280;63483;47.384;8.860;2023-09-30T12:43:35;95422.91;;;18.27;42.46
74921;BME280;63483;47.384;8.860;2023-09-30T12:46:00;95430.63;;;18.49;40.55
74921;BME280;63483;47.384;8.860;2023-09-30T12:48:25;95421.69;;;18.36;40.60
74921;BME280;63483;47.384;8.860;2023-09-30T12:50:51;95421.25;;;18.46;41.07
74921;BME280;63483;47.384;8.860;2023-09-30T12:53:16;95421.28;;;18.39;40.52
74921;BME280;63483;47.384;8.860;2023-09-30T12:55:41;95427.00;;;18.36;40.38
74921;BME280;63483;47.384;8.860;2023-09-30T12:58:07;95422.00;;;17.95;41.30
74921;BME280;63483;47.384;8.860;2023-09-30T13:00:33;95417.59;;;18.27;41.03
74921;BME280;63483;47.384;8.860;2023-09-30T13:03:01;95427.09;;;17.96;41.00
74921;BME280;63483;47.384;8.860;2023-09-30T13:05:27;95418.78;;;17.72;40.97
74921;BME280;63483;47.384;8.860;2023-09-30T13:07:54;95412.00;;;18.03;40.38
74921;BME280;63483;47.384;8.860;2023-09-30T13:10:20;95420.88;;;18.29;40.64
74921;BME280;63483;47.384;8.860;2023-09-30T13:12:45;95413.78;;;18.23;41.10